createdAt,value
2018-02-06T00:01:16.210Z,76.40
2018-02-06T00:03:45.221Z,76.40
2018-02-06T00:06:12.688Z,76.00
2018-02-06T00:08:40.965Z,72.40
2018-02-06T00:11:09.204Z,71.30
2018-02-06T00:13:36.715Z,71.20
2018-02-06T00:16:04.974Z,75.00
2018-02-06T00:18:33.275Z,75.00
2018-02-06T00:21:00.767Z,75.00
2018-02-06T00:23:28.284Z,73.20
2018-02-06T00:25:56.526Z,72.00
2018-02-06T00:28:24.213Z,72.10
2018-02-06T00:30:52.459Z,74.20
2018-02-06T00:33:19.972Z,74.20
2018-02-06T00:35:47.464Z,72.80
2018-02-06T00:38:14.961Z,74.90
2018-02-06T00:40:43.236Z,72.80
2018-02-06T00:43:11.481Z,72.90
2018-02-06T00:45:38.973Z,72.90
2018-02-06T00:48:07.224Z,73.80
2018-02-06T00:50:34.750Z,73.80
2018-02-06T00:53:02.239Z,73.10
2018-02-06T00:55:29.787Z,78.80
2018-02-06T00:57:57.276Z,75.20
2018-02-06T01:00:25.561Z,75.50
2018-02-06T01:02:53.825Z,76.10
2018-02-06T01:05:21.329Z,76.20
2018-02-06T01:07:48.811Z,76.50
2018-02-06T01:10:16.345Z,77.40
2018-02-06T01:12:43.837Z,78.70
2018-02-06T01:15:11.341Z,80.00
2018-02-06T01:17:38.827Z,78.70
2018-02-06T01:20:06.332Z,78.80
2018-02-06T01:22:34.606Z,78.50
2018-02-06T01:25:02.868Z,82.30
2018-02-06T01:27:30.347Z,81.50
2018-02-06T01:29:58.626Z,78.80
2018-02-06T01:32:26.876Z,81.00
2018-02-06T01:34:54.362Z,80.90
2018-02-06T01:37:22.665Z,82.70
2018-02-06T01:39:50.170Z,82.80
2018-02-06T01:42:17.652Z,80.20
2018-02-06T01:44:45.930Z,82.60
2018-02-06T01:47:14.189Z,82.40
2018-02-06T01:50:02.391Z,81.40
2018-02-06T01:52:30.862Z,79.90
2018-02-06T01:54:58.415Z,81.70
2018-02-06T01:57:25.882Z,82.60
2018-02-06T01:59:53.388Z,81.30
2018-02-06T02:02:20.890Z,82.80
2018-02-06T02:04:48.389Z,81.20
2018-02-06T02:07:15.870Z,79.00
2018-02-06T02:09:44.132Z,82.10
2018-02-06T02:12:11.638Z,82.10
2018-02-06T02:14:39.679Z,80.70
2018-02-06T02:17:07.926Z,80.50
2018-02-06T02:19:35.936Z,80.10
2018-02-06T02:22:04.197Z,80.00
2018-02-06T02:24:32.438Z,81.70
2018-02-06T02:26:59.958Z,81.80
2018-02-06T02:29:27.456Z,78.80
2018-02-06T02:31:54.965Z,81.40
2018-02-06T02:34:22.461Z,80.50
2018-02-06T02:36:49.983Z,78.00
2018-02-06T02:39:17.475Z,79.00
2018-02-06T04:39:52.616Z,84.50
2018-02-06T04:42:20.113Z,85.30
2018-02-06T04:44:48.376Z,83.10
2018-02-06T04:47:15.876Z,83.20
2018-02-06T04:49:43.374Z,85.20
2018-02-06T04:52:10.897Z,85.30
2018-02-06T04:54:38.380Z,82.90
2018-02-06T04:57:05.888Z,82.60
2018-02-06T04:59:34.133Z,83.10
2018-02-06T05:02:01.640Z,83.10
2018-02-06T05:04:29.119Z,84.40
2018-02-06T05:06:56.605Z,83.50
2018-02-06T05:09:24.141Z,82.80
2018-02-06T05:11:51.622Z,83.60
2018-02-06T05:14:19.151Z,82.90
2018-02-06T05:16:46.629Z,84.20
2018-02-06T05:19:14.129Z,82.10
2018-02-06T05:21:41.620Z,82.80
2018-02-06T05:24:09.137Z,82.00
2018-02-06T05:26:37.396Z,81.30
2018-02-06T05:29:04.909Z,81.20
2018-02-06T05:31:32.382Z,82.10
2018-02-06T05:33:59.875Z,81.70
2018-02-06T05:36:28.125Z,81.10
2018-02-06T05:38:55.619Z,81.10
2018-02-06T05:41:23.850Z,83.10
2018-02-06T05:43:51.390Z,83.00
2018-02-06T05:46:18.869Z,82.40
2018-02-06T05:48:46.418Z,81.70
2018-02-06T05:51:13.896Z,81.70
2018-02-06T05:53:41.471Z,82.20
2018-02-06T05:56:09.025Z,81.70
2018-02-06T05:58:36.535Z,80.00
2018-02-06T06:01:04.013Z,81.40
2018-02-06T06:03:31.520Z,81.30
2018-02-06T06:05:59.060Z,81.70
2018-02-06T06:08:26.586Z,83.00
2018-02-06T06:10:54.079Z,82.10
2018-02-06T06:13:21.549Z,81.50
2018-02-06T06:15:49.839Z,85.30
2018-02-06T06:18:17.334Z,85.20
2018-02-06T06:20:44.845Z,84.20
2018-02-06T06:23:13.095Z,84.50
2018-02-06T06:25:40.596Z,84.50
2018-02-06T06:28:08.087Z,84.70
2018-02-06T06:30:35.685Z,85.00
2018-02-06T06:33:03.199Z,82.60
2018-02-06T06:35:30.721Z,82.40
2018-02-06T06:37:58.996Z,82.70
2018-02-06T06:40:27.278Z,82.20
2018-02-06T06:42:54.757Z,82.20
2018-02-06T06:45:22.259Z,82.50
2018-02-06T06:47:49.768Z,82.80
2018-02-06T06:50:17.288Z,82.00
2018-02-06T06:52:44.766Z,83.40
2018-02-06T06:55:12.353Z,84.20
2018-02-06T06:57:39.876Z,82.20
2018-02-06T07:00:07.303Z,82.90
2018-02-06T07:02:34.809Z,84.80
2018-02-06T07:05:02.276Z,82.40
2018-02-06T07:07:29.771Z,81.80
2018-02-06T07:09:57.247Z,81.70
2018-02-06T07:12:24.739Z,81.50
2018-02-06T07:14:52.216Z,80.20
2018-02-06T07:17:19.715Z,81.40
2018-02-06T07:19:47.197Z,81.20
2018-02-06T07:22:15.472Z,81.50
2018-02-06T07:24:43.699Z,81.80
2018-02-06T07:27:11.220Z,81.90
2018-02-06T07:29:38.755Z,81.60
2018-02-06T07:32:07.006Z,80.90
2018-02-06T07:34:34.489Z,80.80
2018-02-06T07:37:02.754Z,83.80
2018-02-06T07:39:30.240Z,83.90
2018-02-06T07:41:57.766Z,81.80
2018-02-06T07:44:25.259Z,84.20
2018-02-06T07:46:52.833Z,83.60
2018-02-06T07:49:20.304Z,82.70
2018-02-06T07:51:47.798Z,83.00
2018-02-06T07:54:16.131Z,82.90
2018-02-06T07:56:43.656Z,82.20
2018-02-06T07:59:11.896Z,81.60
2018-02-06T08:01:39.402Z,81.60
2018-02-06T08:04:06.935Z,82.80
2018-02-06T08:06:34.576Z,83.50
2018-02-06T08:09:02.057Z,86.40
2018-02-06T08:11:29.519Z,85.50
2018-02-06T08:13:57.023Z,86.90
2018-02-06T08:16:24.530Z,86.10
2018-02-06T08:18:52.024Z,84.80
2018-02-06T08:21:19.516Z,86.70
2018-02-06T08:23:47.036Z,89.50
2018-02-06T08:26:14.507Z,87.70
2018-02-06T08:28:42.059Z,84.80
2018-02-06T08:31:09.518Z,87.00
2018-02-06T08:33:37.030Z,86.60
2018-02-06T08:36:04.518Z,87.30
2018-02-06T08:38:33.182Z,86.50
2018-02-06T08:41:00.654Z,86.00
2018-02-06T08:43:28.960Z,89.30
2018-02-06T08:45:56.446Z,89.30
2018-02-06T08:48:24.018Z,85.90
2018-02-06T08:50:52.229Z,88.30
2018-02-06T08:53:19.752Z,88.20
2018-02-06T08:55:47.232Z,88.00
2018-02-06T08:58:15.532Z,89.10
2018-02-06T09:00:43.010Z,88.90
2018-02-06T09:03:10.484Z,87.70
2018-02-06T09:05:38.015Z,87.20
2018-02-06T09:08:05.505Z,86.80
2018-02-06T09:10:33.001Z,87.10
2018-02-06T09:13:01.256Z,89.10
2018-02-06T09:15:29.544Z,89.10
2018-02-06T09:17:57.027Z,89.00
2018-02-06T09:20:24.585Z,89.80
2018-02-06T09:22:52.082Z,88.50
2018-02-06T09:25:19.591Z,88.90
2018-02-06T09:27:47.828Z,89.00
2018-02-06T09:30:15.343Z,88.90
2018-02-06T09:32:42.833Z,88.10
2018-02-06T09:35:10.362Z,87.20
2018-02-06T09:37:37.822Z,90.20
2018-02-06T09:40:05.310Z,89.40
2018-02-06T09:42:32.791Z,87.70
2018-02-06T09:45:00.306Z,86.70
2018-02-06T09:47:27.793Z,87.50
2018-02-06T09:49:55.319Z,91.00
2018-02-06T09:52:22.810Z,90.30
2018-02-06T09:54:50.291Z,90.20
2018-02-06T09:57:18.605Z,86.50
2018-02-06T09:59:46.075Z,86.10
2018-02-06T10:02:13.585Z,87.10
2018-02-06T10:04:41.765Z,85.00
2018-02-06T10:07:09.287Z,85.80
2018-02-06T10:09:36.775Z,83.10
2018-02-06T10:12:05.113Z,85.60
2018-02-06T10:14:32.608Z,85.50
2018-02-06T10:17:00.110Z,87.70
2018-02-06T10:19:27.596Z,85.20
2018-02-06T10:21:55.077Z,88.10
2018-02-06T10:24:22.548Z,85.10
2018-02-06T10:26:50.822Z,86.20
2018-02-06T10:29:18.287Z,86.30
2018-02-06T10:31:45.831Z,84.40
2018-02-06T10:34:13.298Z,83.40
2018-02-06T10:36:40.799Z,85.00
2018-02-06T10:39:08.295Z,80.30
2018-02-06T10:41:35.835Z,82.10
2018-02-06T10:44:03.298Z,78.50
2018-02-06T10:46:31.705Z,77.30
2018-02-06T10:48:59.181Z,77.90
2018-02-06T10:51:27.402Z,78.40
2018-02-06T10:53:54.907Z,78.50
2018-02-06T10:56:23.139Z,78.10
2018-02-06T10:58:50.630Z,77.90
2018-02-06T11:01:18.876Z,72.50
2018-02-06T11:03:46.382Z,72.40
2018-02-06T11:06:13.842Z,75.50
2018-02-06T11:08:41.355Z,74.50
2018-02-06T11:11:08.846Z,76.00
2018-02-06T11:13:37.116Z,77.00
2018-02-06T11:16:05.423Z,77.00
2018-02-06T11:18:32.928Z,77.00
2018-02-06T11:21:00.392Z,76.50
2018-02-06T11:23:27.950Z,74.20
2018-02-06T11:25:55.423Z,76.10
2018-02-06T11:28:23.652Z,75.00
2018-02-06T11:30:51.151Z,75.10
2018-02-06T11:33:19.393Z,76.40
2018-02-06T11:35:46.893Z,75.70
2018-02-06T11:38:15.132Z,74.70
2018-02-06T11:40:42.643Z,74.70
2018-02-06T11:43:10.887Z,77.10
2018-02-06T11:45:38.379Z,76.90
2018-02-06T11:48:05.844Z,73.20
2018-02-06T11:50:33.378Z,73.70
2018-02-06T11:53:01.606Z,74.10
2018-02-06T11:55:29.181Z,74.10
2018-02-06T11:57:56.664Z,72.50
2018-02-06T12:00:24.949Z,70.80
2018-02-06T12:02:53.205Z,68.90
2018-02-06T12:05:20.728Z,68.80
2018-02-06T12:07:48.196Z,68.70
2018-02-06T12:10:15.795Z,69.60
2018-02-06T12:12:43.257Z,68.30
2018-02-06T12:15:11.530Z,68.80
2018-02-06T12:17:39.755Z,67.90
2018-02-06T12:20:07.275Z,67.80
2018-02-06T12:22:34.764Z,68.80
2018-02-06T12:25:02.260Z,68.90
2018-02-06T12:27:29.754Z,65.50
2018-02-06T12:29:58.017Z,65.40
2018-02-06T12:32:26.268Z,65.80
2018-02-06T12:34:53.793Z,65.70
2018-02-06T12:37:21.258Z,65.50
2018-02-06T12:39:48.767Z,65.20
2018-02-06T12:42:16.998Z,66.80
2018-02-06T12:44:44.631Z,66.90
2018-02-06T12:47:12.102Z,67.00
2018-02-06T12:49:39.571Z,67.00
2018-02-06T12:52:07.061Z,66.10
2018-02-06T12:54:34.541Z,65.10
2018-02-06T12:57:02.814Z,65.50
2018-02-06T12:59:30.305Z,65.40
2018-02-06T13:01:57.790Z,64.10
2018-02-06T13:04:25.265Z,65.80
2018-02-06T13:06:52.806Z,65.10
2018-02-06T13:09:20.292Z,63.70
2018-02-06T13:11:48.578Z,63.50
2018-02-06T13:14:16.807Z,63.80
2018-02-06T13:16:44.318Z,63.80
2018-02-06T13:19:11.844Z,64.70
2018-02-06T13:21:39.402Z,62.30
2018-02-06T13:24:06.829Z,64.30
2018-02-06T13:26:34.320Z,64.80
2018-02-06T13:29:01.918Z,63.40
2018-02-06T13:31:29.423Z,64.40
2018-02-06T13:33:57.049Z,65.10
2018-02-06T13:36:24.562Z,64.50
2018-02-06T13:38:52.063Z,64.90
2018-02-06T13:41:19.555Z,64.70
2018-02-06T13:43:47.026Z,63.40
2018-02-06T13:46:14.516Z,64.00
2018-02-06T13:48:42.786Z,64.70
2018-02-06T13:51:10.301Z,64.70
2018-02-06T13:53:37.846Z,65.30
2018-02-06T13:56:05.313Z,64.50
2018-02-06T13:58:32.817Z,66.30
2018-02-06T14:01:01.065Z,63.70
2018-02-06T14:03:28.602Z,63.70
2018-02-06T14:05:56.082Z,65.70
2018-02-06T14:08:23.582Z,65.00
2018-02-06T14:10:51.084Z,66.70
2018-02-06T14:13:18.555Z,66.40
2018-02-06T14:15:46.057Z,66.50
2018-02-06T14:18:13.549Z,65.60
2018-02-06T14:20:41.051Z,63.50
2018-02-06T14:23:09.289Z,63.70
2018-02-06T14:25:36.787Z,63.60
2018-02-06T14:28:05.057Z,64.10
2018-02-06T14:30:32.601Z,64.10
2018-02-06T14:33:00.080Z,67.20
2018-02-06T14:35:28.350Z,66.30
2018-02-06T14:37:55.821Z,66.30
2018-02-06T14:40:24.082Z,68.40
2018-02-06T14:42:52.354Z,66.80
2018-02-06T14:45:19.903Z,66.50
2018-02-06T14:47:47.384Z,65.40
2018-02-06T14:50:15.668Z,65.90
2018-02-06T14:52:43.972Z,66.90
2018-02-06T14:55:11.497Z,67.10
2018-02-06T14:57:38.972Z,65.70
2018-02-06T15:00:07.408Z,66.50
2018-02-06T15:02:34.879Z,66.40
2018-02-06T15:05:02.422Z,66.60
2018-02-06T15:07:29.946Z,67.10
2018-02-06T15:09:57.438Z,69.10
2018-02-06T15:12:24.934Z,69.30
2018-02-06T15:14:53.167Z,68.80
2018-02-06T15:17:20.672Z,68.80
2018-02-06T15:19:48.929Z,66.00
2018-02-06T15:22:16.435Z,66.00
2018-02-06T15:24:43.940Z,66.00
2018-02-06T15:27:11.456Z,66.40
2018-02-06T15:29:38.941Z,65.90
2018-02-06T15:32:06.453Z,67.20
2018-02-06T15:34:33.933Z,68.30
2018-02-06T15:37:01.494Z,68.00
2018-02-06T15:39:29.030Z,68.00
2018-02-06T15:41:56.575Z,67.70
2018-02-06T15:44:24.051Z,68.20
2018-02-06T15:46:51.571Z,68.40
2018-02-06T15:49:19.042Z,67.90
2018-02-06T15:51:47.331Z,69.50
2018-02-06T15:54:14.822Z,69.40
2018-02-06T15:56:42.348Z,69.20
2018-02-06T15:59:09.887Z,70.10
2018-02-06T16:01:38.177Z,70.00
2018-02-06T16:04:05.664Z,70.00
2018-02-06T16:06:33.223Z,70.70
2018-02-06T16:09:00.691Z,69.70
2018-02-06T16:11:28.190Z,69.80
2018-02-06T16:13:55.696Z,69.50
2018-02-06T16:16:23.951Z,70.40
2018-02-06T16:18:51.468Z,70.40
2018-02-06T16:21:18.945Z,70.80
2018-02-06T16:23:47.238Z,70.90
2018-02-06T16:26:15.484Z,72.60
2018-02-06T16:28:43.064Z,72.60
2018-02-06T16:31:11.317Z,69.60
2018-02-06T16:33:39.630Z,70.40
2018-02-06T16:36:07.140Z,70.40
2018-02-06T16:38:34.659Z,69.40
2018-02-06T16:41:02.142Z,70.20
2018-02-06T16:43:29.779Z,70.80
2018-02-06T16:45:57.273Z,71.00
2018-02-06T16:48:24.778Z,71.40
2018-02-06T16:50:52.271Z,71.80
2018-02-06T16:53:19.771Z,70.70
2018-02-06T16:55:47.261Z,70.10
2018-02-06T16:58:14.789Z,71.00
2018-02-06T17:00:43.067Z,71.40
2018-02-06T17:03:11.357Z,71.10
2018-02-06T17:05:39.587Z,71.20
2018-02-06T17:08:07.397Z,71.20
2018-02-06T17:10:35.632Z,71.50
2018-02-06T17:13:03.154Z,71.50
2018-02-06T17:15:30.688Z,72.30
2018-02-06T17:17:58.936Z,72.10
2018-02-06T17:20:26.459Z,72.00
2018-02-06T17:22:53.946Z,71.60
2018-02-06T17:25:21.465Z,72.20
2018-02-06T17:27:48.956Z,73.40
2018-02-06T17:30:16.564Z,72.50
2018-02-06T17:32:44.821Z,72.80
2018-02-06T17:35:13.102Z,73.00
2018-02-06T17:37:40.582Z,72.10
2018-02-06T17:40:08.082Z,72.50
2018-02-06T17:42:35.564Z,72.70
2018-02-06T17:45:04.785Z,73.30
2018-02-06T17:47:32.546Z,73.50
2018-02-06T17:50:00.815Z,73.10
2018-02-06T17:52:31.908Z,73.50
2018-02-06T17:54:59.440Z,73.50
2018-02-06T17:57:26.925Z,73.30
2018-02-06T17:59:55.321Z,73.40
2018-02-06T18:02:22.872Z,73.40
2018-02-06T18:04:50.314Z,73.50
2018-02-06T18:07:17.802Z,72.80
2018-02-06T18:09:45.280Z,73.40
2018-02-06T18:12:13.548Z,74.00
2018-02-06T18:14:41.035Z,73.90
2018-02-06T18:17:08.576Z,74.00
2018-02-06T18:19:36.834Z,73.50
2018-02-06T18:22:04.342Z,73.40
2018-02-06T18:24:32.629Z,74.50
2018-02-06T18:27:00.159Z,74.50
2018-02-06T18:29:27.669Z,73.70
2018-02-06T18:31:55.196Z,74.00
2018-02-06T18:34:22.726Z,74.30
2018-02-06T18:36:50.978Z,74.00
2018-02-06T18:39:18.490Z,74.00
2018-02-06T18:41:45.985Z,73.40
2018-02-06T18:44:13.453Z,76.60
2018-02-06T18:46:41.014Z,75.20
2018-02-06T18:49:08.479Z,74.40
2018-02-06T18:51:36.878Z,74.00
2018-02-06T18:54:05.110Z,74.30
2018-02-06T18:56:32.599Z,74.10
2018-02-06T18:59:00.870Z,74.40
2018-02-06T19:01:28.331Z,74.20
2018-02-06T19:03:56.621Z,74.00
2018-02-06T19:06:24.100Z,74.00
2018-02-06T19:08:51.609Z,74.80
2018-02-06T19:11:19.334Z,75.00
2018-02-06T19:13:46.843Z,74.60
2018-02-06T19:16:14.324Z,74.50
2018-02-06T19:18:42.650Z,74.80
2018-02-06T19:21:10.157Z,74.80
2018-02-06T19:23:38.443Z,75.80
2018-02-06T19:26:06.922Z,73.40
2018-02-06T19:28:34.497Z,73.80
2018-02-06T19:31:02.811Z,73.90
2018-02-06T19:33:31.102Z,74.20
2018-02-06T19:35:59.394Z,76.20
2018-02-06T19:38:27.711Z,75.30
2018-02-06T19:40:55.175Z,75.30
2018-02-06T19:43:22.725Z,74.10
2018-02-06T19:45:50.735Z,73.90
2018-02-06T19:48:18.255Z,74.00
2018-02-06T19:50:45.727Z,74.30
2018-02-06T19:53:13.783Z,74.00
2018-02-06T19:55:42.107Z,74.30
2018-02-06T19:58:09.600Z,74.30
2018-02-06T20:00:37.112Z,75.60
2018-02-06T20:03:04.741Z,74.70
2018-02-06T20:05:32.312Z,74.60
2018-02-06T20:07:59.800Z,74.50
2018-02-06T20:10:27.325Z,74.70
2018-02-06T20:12:54.811Z,77.10
2018-02-06T20:15:22.317Z,74.70
2018-02-06T20:17:49.876Z,74.50
2018-02-06T20:20:17.375Z,74.30
2018-02-06T20:22:44.886Z,74.10
2018-02-06T20:25:12.423Z,75.00
2018-02-06T20:27:41.658Z,76.00
2018-02-06T20:30:09.173Z,76.00
2018-02-06T20:32:37.423Z,74.90
2018-02-06T20:35:04.923Z,74.60
2018-02-06T20:37:32.408Z,75.10
2018-02-06T20:40:00.067Z,75.50
2018-02-06T20:42:27.554Z,75.70
2018-02-06T20:44:55.613Z,75.00
2018-02-06T20:47:23.577Z,75.50
2018-02-06T20:49:51.996Z,75.40
2018-02-06T20:52:19.486Z,75.70
2018-02-06T20:54:46.972Z,75.00
2018-02-06T20:57:14.505Z,76.00
2018-02-06T20:59:42.029Z,76.00
2018-02-06T21:02:09.506Z,75.80
2018-02-06T21:04:37.805Z,75.30
2018-02-06T21:07:05.304Z,75.30
2018-02-06T21:09:32.925Z,76.10
2018-02-06T21:12:00.407Z,76.20
2018-02-06T21:14:27.912Z,76.00
2018-02-06T21:16:56.159Z,75.90
2018-02-06T21:19:23.697Z,75.90
2018-02-06T21:21:51.186Z,76.40
2018-02-06T21:24:18.664Z,76.60
2018-02-06T21:26:46.930Z,75.80
2018-02-06T21:29:15.191Z,76.50
2018-02-06T21:31:42.686Z,76.50
2018-02-06T21:34:10.165Z,75.50
2018-02-06T21:36:37.687Z,76.50
2018-02-06T21:39:05.914Z,76.40
2018-02-06T21:41:33.453Z,76.20
2018-02-06T21:44:00.965Z,76.90
2018-02-06T21:46:28.470Z,77.70
2018-02-06T21:48:55.935Z,78.00
2018-02-06T21:51:23.466Z,78.50
2018-02-06T21:53:51.709Z,77.60
2018-02-06T21:56:19.230Z,77.50
2018-02-06T21:58:46.705Z,78.80
2018-02-06T22:01:14.192Z,77.00
2018-02-06T22:03:41.701Z,76.60
2018-02-06T22:06:09.175Z,77.00
2018-02-06T22:08:36.684Z,77.00
2018-02-06T22:11:04.959Z,78.10
2018-02-06T22:13:33.212Z,78.00
2018-02-06T22:16:00.730Z,78.00
2018-02-06T22:18:28.213Z,78.00
2018-02-06T22:20:55.839Z,78.30
2018-02-06T22:23:23.333Z,78.20
2018-02-06T22:25:50.798Z,78.50
2018-02-06T22:28:18.299Z,78.80
2018-02-06T22:30:45.837Z,78.90
2018-02-06T22:33:14.087Z,79.30
2018-02-06T22:35:41.611Z,79.30
2018-02-06T22:38:09.101Z,79.50
2018-02-06T22:40:36.611Z,79.60
2018-02-06T22:43:04.081Z,79.80
2018-02-06T22:45:31.597Z,80.20
2018-02-06T22:47:59.847Z,81.20
2018-02-06T22:50:27.376Z,80.80
2018-02-06T22:52:54.869Z,80.90
2018-02-06T22:55:22.345Z,80.60
2018-02-06T22:57:50.628Z,80.40
2018-02-06T23:00:24.612Z,80.20
2018-02-06T23:02:52.113Z,80.10
2018-02-06T23:05:19.583Z,80.30
2018-02-06T23:07:47.087Z,80.30
2018-02-06T23:10:14.584Z,80.30
2018-02-06T23:12:42.841Z,80.30
2018-02-06T23:15:11.107Z,80.30
2018-02-06T23:17:38.585Z,80.30
2018-02-06T23:20:06.821Z,80.80
2018-02-06T23:22:34.318Z,80.70
2018-02-06T23:25:02.558Z,81.60
2018-02-06T23:27:30.127Z,81.60
2018-02-06T23:29:57.611Z,81.80
2018-02-06T23:32:25.892Z,82.50
2018-02-06T23:34:54.140Z,82.80
2018-02-06T23:37:21.662Z,82.80
2018-02-06T23:39:49.177Z,82.90
2018-02-06T23:42:17.512Z,83.40
2018-02-06T23:44:44.972Z,83.40
2018-02-06T23:47:12.452Z,83.80
2018-02-06T23:49:39.958Z,83.90
2018-02-06T23:52:07.440Z,84.40
2018-02-06T23:54:35.708Z,84.70
2018-02-06T23:57:03.188Z,84.70
2018-02-06T23:59:30.713Z,84.70
